sensor_id;sensor_type;location;lat;lon;timestamp;pressure;altitude;pressure_sealevel;temperature;humidity
75617;BME280;64200;55.426;37.758;2023-02-10T00:04:34;100372.06;;;-1.53;64.52
75617;BME280;64200;55.426;37.758;2023-02-10T00:09:35;100368.09;;;-1.32;64.64
75617;BME280;64200;55.426;37.758;2023-02-10T00:14:35;100354.31;;;-1.39;65.17
75617;BME280;64200;55.426;37.758;2023-02-10T00:19:36;100351.16;;;-1.15;64.61
75617;BME280;64200;55.426;37.758;2023-02-10T00:24:36;100326.91;;;-1.43;63.06
75617;BME280;64200;55.426;37.758;2023-02-10T00:29:37;100339.47;;;-1.38;63.56
75617;BME280;64200;55.426;37.758;2023-02-10T00:34:40;100315.09;;;-1.47;63.91
75617;BME280;64200;55.426;37.758;2023-02-10T00:39:40;100317.78;;;-1.24;63.38
75617;BME280;64200;55.426;37.758;2023-02-10T00:44:41;100307.59;;;-1.27;62.30
75617;BME280;64200;55.426;37.758;2023-02-10T00:49:41;100300.38;;;-1.39;63.12
75617;BME280;64200;55.426;37.758;2023-02-10T00:54:42;100291.00;;;-1.38;62.80
75617;BME280;64200;55.426;37.758;2023-02-10T00:59:43;100283.00;;;-1.50;63.22
75617;BME280;64200;55.426;37.758;2023-02-10T01:04:43;100288.69;;;-1.63;63.59
75617;BME280;64200;55.426;37.758;2023-02-10T01:09:44;100279.84;;;-1.79;62.98
75617;BME280;64200;55.426;37.758;2023-02-10T01:14:44;100257.41;;;-1.62;63.42
75617;BME280;64200;55.426;37.758;2023-02-10T01:19:45;100243.66;;;-1.42;62.80
75617;BME280;64200;55.426;37.758;2023-02-10T01:24:45;100257.56;;;-1.24;62.37
75617;BME280;64200;55.426;37.758;2023-02-10T01:29:46;100241.69;;;-1.42;63.32
75617;BME280;64200;55.426;37.758;2023-02-10T01:34:46;100236.16;;;-1.72;63.72
75617;BME280;64200;55.426;37.758;2023-02-10T01:39:46;100231.75;;;-1.80;64.33
75617;BME280;64200;55.426;37.758;2023-02-10T01:49:49;100226.44;;;-1.96;63.72
75617;BME280;64200;55.426;37.758;2023-02-10T01:54:59;100216.19;;;-2.03;63.59
75617;BME280;64200;55.426;37.758;2023-02-10T02:00:03;100223.31;;;-1.95;62.60
75617;BME280;64200;55.426;37.758;2023-02-10T02:05:21;100224.34;;;-1.80;62.59
75617;BME280;64200;55.426;37.758;2023-02-10T02:10:27;100209.63;;;-1.98;62.88
75617;BME280;64200;55.426;37.758;2023-02-10T02:15:42;100208.28;;;-2.08;63.32
75617;BME280;64200;55.426;37.758;2023-02-10T02:37:21;100178.22;;;-2.08;62.97
75617;BME280;64200;55.426;37.758;2023-02-10T02:42:27;100155.09;;;-2.14;62.05
75617;BME280;64200;55.426;37.758;2023-02-10T02:58:02;100138.00;;;-2.07;62.26
75617;BME280;64200;55.426;37.758;2023-02-10T03:03:08;100140.16;;;-1.93;62.64
75617;BME280;64200;55.426;37.758;2023-02-10T03:08:09;100123.53;;;-2.08;62.28
75617;BME280;64200;55.426;37.758;2023-02-10T03:13:09;100114.25;;;-2.03;62.02
75617;BME280;64200;55.426;37.758;2023-02-10T03:18:09;100120.66;;;-1.92;62.10
75617;BME280;64200;55.426;37.758;2023-02-10T03:23:10;100110.25;;;-2.09;62.19
75617;BME280;64200;55.426;37.758;2023-02-10T03:28:11;100105.19;;;-2.07;62.48
75617;BME280;64200;55.426;37.758;2023-02-10T03:33:12;100090.34;;;-2.10;62.76
75617;BME280;64200;55.426;37.758;2023-02-10T03:38:13;100079.41;;;-2.10;63.38
75617;BME280;64200;55.426;37.758;2023-02-10T03:43:14;100079.44;;;-2.06;63.57
75617;BME280;64200;55.426;37.758;2023-02-10T03:48:15;100067.75;;;-2.03;62.71
75617;BME280;64200;55.426;37.758;2023-02-10T03:53:16;100057.19;;;-2.05;63.38
75617;BME280;64200;55.426;37.758;2023-02-10T03:58:16;100038.88;;;-2.31;63.91
75617;BME280;64200;55.426;37.758;2023-02-10T04:03:17;100045.03;;;-2.11;63.82
75617;BME280;64200;55.426;37.758;2023-02-10T04:08:19;100039.88;;;-2.16;64.40
75617;BME280;64200;55.426;37.758;2023-02-10T04:13:19;100014.28;;;-2.31;64.10
75617;BME280;64200;55.426;37.758;2023-02-10T04:18:20;99996.66;;;-2.37;64.20
75617;BME280;64200;55.426;37.758;2023-02-10T04:23:20;100004.91;;;-2.34;64.29
75617;BME280;64200;55.426;37.758;2023-02-10T04:28:21;100015.13;;;-2.27;63.84
75617;BME280;64200;55.426;37.758;2023-02-10T04:33:22;99996.13;;;-2.47;64.60
75617;BME280;64200;55.426;37.758;2023-02-10T04:38:25;99980.72;;;-2.32;63.64
75617;BME280;64200;55.426;37.758;2023-02-10T04:43:25;100008.75;;;-2.38;64.33
75617;BME280;64200;55.426;37.758;2023-02-10T04:48:26;99993.13;;;-2.38;63.83
75617;BME280;64200;55.426;37.758;2023-02-10T04:53:26;99997.34;;;-2.44;64.11
75617;BME280;64200;55.426;37.758;2023-02-10T04:58:27;99999.28;;;-2.44;64.27
75617;BME280;64200;55.426;37.758;2023-02-10T05:03:27;99993.50;;;-2.39;64.30
75617;BME280;64200;55.426;37.758;2023-02-10T05:08:27;100004.63;;;-2.52;64.73
75617;BME280;64200;55.426;37.758;2023-02-10T05:13:28;100019.66;;;-2.65;65.49
75617;BME280;64200;55.426;37.758;2023-02-10T05:18:33;99984.59;;;-2.63;65.30
75617;BME280;64200;55.426;37.758;2023-02-10T05:23:36;99974.41;;;-2.66;65.79
75617;BME280;64200;55.426;37.758;2023-02-10T05:28:36;99972.06;;;-2.37;65.26
75617;BME280;64200;55.426;37.758;2023-02-10T05:33:37;99969.59;;;-2.46;64.96
75617;BME280;64200;55.426;37.758;2023-02-10T05:38:37;99954.66;;;-2.25;64.47
75617;BME280;64200;55.426;37.758;2023-02-10T05:43:38;99958.78;;;-2.39;64.53
75617;BME280;64200;55.426;37.758;2023-02-10T05:48:40;99959.75;;;-2.54;65.42
75617;BME280;64200;55.426;37.758;2023-02-10T05:53:40;99938.91;;;-2.66;65.18
75617;BME280;64200;55.426;37.758;2023-02-10T05:58:41;99945.38;;;-2.48;64.99
75617;BME280;64200;55.426;37.758;2023-02-10T06:03:41;99935.84;;;-2.61;65.65
75617;BME280;64200;55.426;37.758;2023-02-10T06:08:42;99915.19;;;-2.28;64.45
75617;BME280;64200;55.426;37.758;2023-02-10T06:13:43;99921.16;;;-2.19;64.83
75617;BME280;64200;55.426;37.758;2023-02-10T06:18:44;99902.91;;;-2.11;64.25
75617;BME280;64200;55.426;37.758;2023-02-10T06:23:47;99904.88;;;-2.08;63.85
75617;BME280;64200;55.426;37.758;2023-02-10T06:28:48;99902.31;;;-1.93;64.15
75617;BME280;64200;55.426;37.758;2023-02-10T06:33:48;99881.13;;;-2.00;63.48
75617;BME280;64200;55.426;37.758;2023-02-10T06:38:49;99875.31;;;-1.99;63.55
75617;BME280;64200;55.426;37.758;2023-02-10T06:43:49;99846.88;;;-1.90;63.50
75617;BME280;64200;55.426;37.758;2023-02-10T06:48:51;99858.41;;;-2.08;64.36
75617;BME280;64200;55.426;37.758;2023-02-10T06:53:52;99850.13;;;-2.19;64.13
75617;BME280;64200;55.426;37.758;2023-02-10T06:58:52;99844.31;;;-2.48;64.87
75617;BME280;64200;55.426;37.758;2023-02-10T07:03:55;99841.25;;;-2.08;63.42
75617;BME280;64200;55.426;37.758;2023-02-10T07:08:56;99810.22;;;-1.82;63.39
75617;BME280;64200;55.426;37.758;2023-02-10T07:13:56;99802.34;;;-0.65;59.66
75617;BME280;64200;55.426;37.758;2023-02-10T07:18:57;99806.28;;;-0.52;58.30
75617;BME280;64200;55.426;37.758;2023-02-10T07:23:57;99752.22;;;-0.73;58.24
75617;BME280;64200;55.426;37.758;2023-02-10T07:28:58;99732.69;;;-0.61;58.89
75617;BME280;64200;55.426;37.758;2023-02-10T07:33:59;99728.78;;;-0.52;57.10
75617;BME280;64200;55.426;37.758;2023-02-10T07:38:59;99725.25;;;-0.57;58.39
75617;BME280;64200;55.426;37.758;2023-02-10T07:44:00;99733.94;;;-0.11;58.32
75617;BME280;64200;55.426;37.758;2023-02-10T07:49:00;99707.66;;;0.24;56.86
75617;BME280;64200;55.426;37.758;2023-02-10T07:54:01;99716.25;;;0.44;55.19
75617;BME280;64200;55.426;37.758;2023-02-10T07:59:01;99694.69;;;0.49;55.22
75617;BME280;64200;55.426;37.758;2023-02-10T08:04:02;99684.97;;;1.22;53.02
75617;BME280;64200;55.426;37.758;2023-02-10T08:09:04;99677.25;;;4.17;49.04
75617;BME280;64200;55.426;37.758;2023-02-10T08:14:04;99700.88;;;5.22;44.99
75617;BME280;64200;55.426;37.758;2023-02-10T08:19:05;99678.75;;;6.08;41.34
75617;BME280;64200;55.426;37.758;2023-02-10T08:24:05;99672.63;;;4.34;42.50
75617;BME280;64200;55.426;37.758;2023-02-10T08:29:06;99667.38;;;3.17;44.88
75617;BME280;64200;55.426;37.758;2023-02-10T08:34:14;99690.72;;;3.37;45.92
75617;BME280;64200;55.426;37.758;2023-02-10T08:39:15;99699.63;;;4.86;43.04
75617;BME280;64200;55.426;37.758;2023-02-10T08:44:15;99692.00;;;6.46;40.01
75617;BME280;64200;55.426;37.758;2023-02-10T08:49:16;99694.66;;;6.79;36.72
75617;BME280;64200;55.426;37.758;2023-02-10T08:54:17;99684.56;;;7.40;34.92
75617;BME280;64200;55.426;37.758;2023-02-10T08:59:17;99663.56;;;8.25;34.66
75617;BME280;64200;55.426;37.758;2023-02-10T09:04:18;99661.28;;;10.31;33.58
75617;BME280;64200;55.426;37.758;2023-02-10T09:09:22;99657.31;;;11.64;31.39
75617;BME280;64200;55.426;37.758;2023-02-10T09:14:24;99671.91;;;11.92;28.63
75617;BME280;64200;55.426;37.758;2023-02-10T09:19:25;99626.63;;;7.16;32.93
75617;BME280;64200;55.426;37.758;2023-02-10T09:24:25;99626.22;;;6.33;35.24
75617;BME280;64200;55.426;37.758;2023-02-10T09:29:26;99596.97;;;4.68;38.51
75617;BME280;64200;55.426;37.758;2023-02-10T09:34:26;99590.75;;;2.78;41.41
75617;BME280;64200;55.426;37.758;2023-02-10T09:39:30;99579.47;;;2.69;42.93
75617;BME280;64200;55.426;37.758;2023-02-10T09:44:34;99566.56;;;2.31;44.17
75617;BME280;64200;55.426;37.758;2023-02-10T09:55:26;99538.56;;;2.36;43.36
75617;BME280;64200;55.426;37.758;2023-02-10T10:00:34;99519.66;;;1.31;45.35
75617;BME280;64200;55.426;37.758;2023-02-10T10:11:05;99521.81;;;1.54;46.09
75617;BME280;64200;55.426;37.758;2023-02-10T10:16:25;99506.47;;;1.12;46.38
75617;BME280;64200;55.426;37.758;2023-02-10T10:26:58;99501.38;;;1.10;46.82
75617;BME280;64200;55.426;37.758;2023-02-10T10:32:14;99500.06;;;1.26;46.86
75617;BME280;64200;55.426;37.758;2023-02-10T10:37:18;99507.13;;;0.78;47.40
75617;BME280;64200;55.426;37.758;2023-02-10T10:48:00;99484.78;;;0.72;46.27
75617;BME280;64200;55.426;37.758;2023-02-10T10:53:05;99477.66;;;0.82;45.56
75617;BME280;64200;55.426;37.758;2023-02-10T11:03:23;99444.81;;;1.16;46.15
75617;BME280;64200;55.426;37.758;2023-02-10T11:08:28;99427.84;;;1.25;44.59
75617;BME280;64200;55.426;37.758;2023-02-10T11:13:31;99430.38;;;1.09;44.96
75617;BME280;64200;55.426;37.758;2023-02-10T11:18:32;99404.50;;;0.61;45.98
75617;BME280;64200;55.426;37.758;2023-02-10T11:23:46;99401.81;;;0.54;45.69
75617;BME280;64200;55.426;37.758;2023-02-10T11:28:48;99381.66;;;0.71;46.33
75617;BME280;64200;55.426;37.758;2023-02-10T11:34:20;99381.09;;;0.91;45.07
75617;BME280;64200;55.426;37.758;2023-02-10T11:44:31;99380.53;;;1.07;46.13
75617;BME280;64200;55.426;37.758;2023-02-10T11:49:34;99376.78;;;1.93;44.25
75617;BME280;64200;55.426;37.758;2023-02-10T11:54:37;99373.03;;;0.73;45.75
75617;BME280;64200;55.426;37.758;2023-02-10T11:59:50;99394.13;;;0.79;45.83
75617;BME280;64200;55.426;37.758;2023-02-10T12:10:29;99362.69;;;0.42;46.40
75617;BME280;64200;55.426;37.758;2023-02-10T12:57:28;99276.69;;;4.44;39.00
75617;BME280;64200;55.426;37.758;2023-02-10T13:07:54;99292.47;;;4.27;37.74
75617;BME280;64200;55.426;37.758;2023-02-10T13:13:05;99284.56;;;2.59;39.19
75617;BME280;64200;55.426;37.758;2023-02-10T13:18:22;99271.41;;;1.11;42.68
75617;BME280;64200;55.426;37.758;2023-02-10T13:34:12;99263.44;;;0.51;45.29
75617;BME280;64200;55.426;37.758;2023-02-10T13:39:17;99259.97;;;0.43;46.56
75617;BME280;64200;55.426;37.758;2023-02-10T13:44:27;99265.75;;;0.11;46.81
75617;BME280;64200;55.426;37.758;2023-02-10T13:49:28;99249.34;;;0.04;46.98
75617;BME280;64200;55.426;37.758;2023-02-10T13:54:31;99240.13;;;-0.21;48.27
75617;BME280;64200;55.426;37.758;2023-02-10T13:59:39;99257.06;;;-0.40;48.67
75617;BME280;64200;55.426;37.758;2023-02-10T14:04:46;99262.25;;;-0.53;49.05
75617;BME280;64200;55.426;37.758;2023-02-10T14:10:25;99248.47;;;-0.39;48.72
75617;BME280;64200;55.426;37.758;2023-02-10T14:15:26;99251.66;;;-0.47;49.03
75617;BME280;64200;55.426;37.758;2023-02-10T14:20:31;99250.09;;;-0.52;48.86
75617;BME280;64200;55.426;37.758;2023-02-10T14:25:40;99250.53;;;-0.61;49.48
75617;BME280;64200;55.426;37.758;2023-02-10T14:30:44;99255.63;;;-0.56;49.50
75617;BME280;64200;55.426;37.758;2023-02-10T14:35:50;99259.41;;;-0.39;49.26
75617;BME280;64200;55.426;37.758;2023-02-10T14:40:52;99245.53;;;-0.73;49.69
75617;BME280;64200;55.426;37.758;2023-02-10T14:45:55;99245.91;;;-0.67;49.80
75617;BME280;64200;55.426;37.758;2023-02-10T14:56:00;99229.81;;;-0.62;50.46
75617;BME280;64200;55.426;37.758;2023-02-10T15:06:29;99212.41;;;-0.93;51.60
75617;BME280;64200;55.426;37.758;2023-02-10T15:16:52;99241.69;;;-0.83;51.52
75617;BME280;64200;55.426;37.758;2023-02-10T15:21:56;99239.28;;;-0.74;50.92
75617;BME280;64200;55.426;37.758;2023-02-10T15:27:17;99247.97;;;-0.90;51.97
75617;BME280;64200;55.426;37.758;2023-02-10T15:32:20;99230.72;;;-0.86;51.43
75617;BME280;64200;55.426;37.758;2023-02-10T15:37:24;99243.53;;;-0.62;51.45
75617;BME280;64200;55.426;37.758;2023-02-10T15:42:29;99258.81;;;-0.72;52.01
75617;BME280;64200;55.426;37.758;2023-02-10T15:47:47;99257.88;;;-0.43;51.68
75617;BME280;64200;55.426;37.758;2023-02-10T15:52:49;99239.59;;;-0.57;50.91
75617;BME280;64200;55.426;37.758;2023-02-10T15:57:50;99265.00;;;-0.57;50.89
75617;BME280;64200;55.426;37.758;2023-02-10T16:02:51;99248.53;;;-0.46;51.25
75617;BME280;64200;55.426;37.758;2023-02-10T16:07:52;99264.19;;;-0.54;51.67
75617;BME280;64200;55.426;37.758;2023-02-10T16:12:53;99269.78;;;-0.68;51.82
75617;BME280;64200;55.426;37.758;2023-02-10T16:17:58;99254.03;;;-0.57;51.29
75617;BME280;64200;55.426;37.758;2023-02-10T16:23:00;99259.94;;;-0.58;51.88
75617;BME280;64200;55.426;37.758;2023-02-10T16:28:01;99277.16;;;-0.61;52.13
75617;BME280;64200;55.426;37.758;2023-02-10T16:33:02;99264.97;;;-0.46;52.29
75617;BME280;64200;55.426;37.758;2023-02-10T16:38:02;99266.94;;;-0.54;52.22
75617;BME280;64200;55.426;37.758;2023-02-10T16:43:03;99276.72;;;-0.52;52.76
75617;BME280;64200;55.426;37.758;2023-02-10T16:48:04;99286.03;;;-0.36;52.84
75617;BME280;64200;55.426;37.758;2023-02-10T16:53:05;99279.84;;;-0.50;53.71
75617;BME280;64200;55.426;37.758;2023-02-10T16:58:12;99304.22;;;-0.74;57.18
75617;BME280;64200;55.426;37.758;2023-02-10T17:03:13;99295.59;;;-0.73;59.89
75617;BME280;64200;55.426;37.758;2023-02-10T17:08:14;99301.13;;;-0.83;59.93
75617;BME280;64200;55.426;37.758;2023-02-10T17:13:14;99286.78;;;-1.24;62.51
75617;BME280;64200;55.426;37.758;2023-02-10T17:18:15;99313.31;;;-1.02;63.35
75617;BME280;64200;55.426;37.758;2023-02-10T17:23:15;99311.75;;;-1.03;63.70
75617;BME280;64200;55.426;37.758;2023-02-10T17:28:16;99304.75;;;-1.19;64.40
75617;BME280;64200;55.426;37.758;2023-02-10T17:33:25;99306.31;;;-1.11;63.48
75617;BME280;64200;55.426;37.758;2023-02-10T17:38:27;99301.16;;;-0.98;63.59
75617;BME280;64200;55.426;37.758;2023-02-10T17:43:46;99295.75;;;-1.16;64.48
75617;BME280;64200;55.426;37.758;2023-02-10T17:48:47;99309.81;;;-1.10;64.55
75617;BME280;64200;55.426;37.758;2023-02-10T17:53:49;99323.44;;;-0.89;64.46
75617;BME280;64200;55.426;37.758;2023-02-10T17:58:50;99314.09;;;-1.06;64.93
75617;BME280;64200;55.426;37.758;2023-02-10T18:03:51;99324.25;;;-0.92;64.21
75617;BME280;64200;55.426;37.758;2023-02-10T18:08:52;99322.25;;;-0.88;65.20
75617;BME280;64200;55.426;37.758;2023-02-10T18:13:52;99310.19;;;-0.97;65.13
75617;BME280;64200;55.426;37.758;2023-02-10T18:18:53;99305.44;;;-0.86;64.65
75617;BME280;64200;55.426;37.758;2023-02-10T18:23:55;99285.50;;;-0.94;65.20
75617;BME280;64200;55.426;37.758;2023-02-10T18:28:56;99292.56;;;-0.93;64.94
75617;BME280;64200;55.426;37.758;2023-02-10T18:33:56;99265.63;;;-1.05;65.00
75617;BME280;64200;55.426;37.758;2023-02-10T18:38:57;99281.59;;;-0.89;64.59
75617;BME280;64200;55.426;37.758;2023-02-10T18:43:58;99281.22;;;-0.91;64.59
75617;BME280;64200;55.426;37.758;2023-02-10T18:48:59;99288.22;;;-0.86;64.64
75617;BME280;64200;55.426;37.758;2023-02-10T18:53:59;99273.78;;;-0.91;63.76
75617;BME280;64200;55.426;37.758;2023-02-10T18:58:59;99290.19;;;-0.91;63.84
75617;BME280;64200;55.426;37.758;2023-02-10T19:04:00;99288.69;;;-0.99;64.44
75617;BME280;64200;55.426;37.758;2023-02-10T19:09:02;99275.81;;;-1.09;64.12
75617;BME280;64200;55.426;37.758;2023-02-10T19:14:05;99283.59;;;-1.04;64.36
75617;BME280;64200;55.426;37.758;2023-02-10T19:19:06;99292.63;;;-1.21;64.04
75617;BME280;64200;55.426;37.758;2023-02-10T19:24:08;99288.75;;;-1.28;64.57
75617;BME280;64200;55.426;37.758;2023-02-10T19:29:12;99289.53;;;-1.38;64.97
75617;BME280;64200;55.426;37.758;2023-02-10T19:34:12;99281.34;;;-1.38;64.66
75617;BME280;64200;55.426;37.758;2023-02-10T19:39:17;99273.94;;;-1.37;64.72
75617;BME280;64200;55.426;37.758;2023-02-10T19:44:20;99259.09;;;-1.51;64.21
75617;BME280;64200;55.426;37.758;2023-02-10T19:49:21;99287.97;;;-1.21;63.64
75617;BME280;64200;55.426;37.758;2023-02-10T19:54:22;99287.59;;;-1.30;63.85
75617;BME280;64200;55.426;37.758;2023-02-10T19:59:23;99288.41;;;-1.48;63.96
75617;BME280;64200;55.426;37.758;2023-02-10T20:04:24;99296.59;;;-1.44;64.72
75617;BME280;64200;55.426;37.758;2023-02-10T20:09:24;99277.06;;;-1.46;64.04
75617;BME280;64200;55.426;37.758;2023-02-10T20:14:25;99276.25;;;-1.29;63.83
75617;BME280;64200;55.426;37.758;2023-02-10T20:19:26;99279.38;;;-1.41;64.52
75617;BME280;64200;55.426;37.758;2023-02-10T20:24:26;99280.53;;;-1.17;63.82
75617;BME280;64200;55.426;37.758;2023-02-10T20:29:27;99261.00;;;-1.33;63.93
75617;BME280;64200;55.426;37.758;2023-02-10T20:34:27;99282.84;;;-1.12;64.09
75617;BME280;64200;55.426;37.758;2023-02-10T20:39:28;99276.56;;;-1.05;62.98
75617;BME280;64200;55.426;37.758;2023-02-10T20:44:28;99278.56;;;-1.20;63.33
75617;BME280;64200;55.426;37.758;2023-02-10T20:49:29;99268.03;;;-1.25;63.70
75617;BME280;64200;55.426;37.758;2023-02-10T20:54:29;99257.84;;;-1.21;63.75
75617;BME280;64200;55.426;37.758;2023-02-10T20:59:30;99253.91;;;-1.20;63.04
75617;BME280;64200;55.426;37.758;2023-02-10T21:04:30;99273.47;;;-1.21;63.33
75617;BME280;64200;55.426;37.758;2023-02-10T21:09:34;99260.97;;;-1.15;63.19
75617;BME280;64200;55.426;37.758;2023-02-10T21:14:35;99271.94;;;-1.22;63.37
75617;BME280;64200;55.426;37.758;2023-02-10T21:19:35;99267.56;;;-1.06;63.03
75617;BME280;64200;55.426;37.758;2023-02-10T21:24:36;99255.00;;;-0.92;62.62
75617;BME280;64200;55.426;37.758;2023-02-10T21:29:37;99257.41;;;-1.09;63.68
75617;BME280;64200;55.426;37.758;2023-02-10T21:34:38;99246.09;;;-1.21;63.63
75617;BME280;64200;55.426;37.758;2023-02-10T21:39:39;99246.47;;;-1.09;64.08
75617;BME280;64200;55.426;37.758;2023-02-10T21:44:39;99264.34;;;-0.86;63.45
75617;BME280;64200;55.426;37.758;2023-02-10T21:49:40;99244.00;;;-0.78;63.55
75617;BME280;64200;55.426;37.758;2023-02-10T21:54:41;99224.59;;;-1.16;64.14
75617;BME280;64200;55.426;37.758;2023-02-10T21:59:42;99238.25;;;-1.05;63.65
75617;BME280;64200;55.426;37.758;2023-02-10T22:04:42;99258.13;;;-0.94;63.51
75617;BME280;64200;55.426;37.758;2023-02-10T22:09:43;99255.50;;;-1.15;63.55
75617;BME280;64200;55.426;37.758;2023-02-10T22:14:44;99271.94;;;-1.33;64.02
75617;BME280;64200;55.426;37.758;2023-02-10T22:19:44;99261.38;;;-1.28;64.09
75617;BME280;64200;55.426;37.758;2023-02-10T22:24:45;99249.69;;;-1.39;63.75
75617;BME280;64200;55.426;37.758;2023-02-10T22:29:45;99257.50;;;-1.41;64.51
75617;BME280;64200;55.426;37.758;2023-02-10T22:34:46;99240.34;;;-1.56;64.58
75617;BME280;64200;55.426;37.758;2023-02-10T22:39:46;99261.81;;;-1.47;64.73
75617;BME280;64200;55.426;37.758;2023-02-10T22:44:47;99261.81;;;-1.54;65.03
75617;BME280;64200;55.426;37.758;2023-02-10T22:49:51;99274.31;;;-1.39;65.00
75617;BME280;64200;55.426;37.758;2023-02-10T22:54:52;99268.06;;;-1.43;65.31
75617;BME280;64200;55.426;37.758;2023-02-10T22:59:52;99278.22;;;-1.40;65.37
75617;BME280;64200;55.426;37.758;2023-02-10T23:04:53;99269.97;;;-1.18;64.48
75617;BME280;64200;55.426;37.758;2023-02-10T23:09:53;99266.91;;;-1.56;65.36
75617;BME280;64200;55.426;37.758;2023-02-10T23:14:54;99275.13;;;-1.42;65.40
75617;BME280;64200;55.426;37.758;2023-02-10T23:19:54;99263.78;;;-1.51;65.22
75617;BME280;64200;55.426;37.758;2023-02-10T23:24:55;99260.66;;;-1.57;65.83
75617;BME280;64200;55.426;37.758;2023-02-10T23:29:56;99273.53;;;-1.50;65.59
75617;BME280;64200;55.426;37.758;2023-02-10T23:34:57;99268.06;;;-1.50;65.48
75617;BME280;64200;55.426;37.758;2023-02-10T23:39:57;99271.22;;;-1.55;65.37
75617;BME280;64200;55.426;37.758;2023-02-10T23:44:58;99270.44;;;-1.56;65.88
75617;BME280;64200;55.426;37.758;2023-02-10T23:49:59;99273.16;;;-1.63;66.02
75617;BME280;64200;55.426;37.758;2023-02-10T23:54:59;99274.72;;;-1.59;66.26
75617;BME280;64200;55.426;37.758;2023-02-10T23:59:59;99277.47;;;-1.69;66.30
